Time;durP1;ratioP1;P1;durP2;ratioP2;P2;SDS_P1;SDS_P2;PMS_P1;PMS_P2;Temp;Humidity;BMP_temperature;BMP_pressure;BME280_temperature;BME280_humidity;BME280_pressure;Samples;Min_cycle;Max_cycle;Signal;HPM_P1;HPM_P2
2022/11/07 00:01:19;;;;;;;12.87;4.30;;;;;;;;;;6180175;23;20179;-87
2022/11/07 00:03:48;;;;;;;6.97;2.97;;;;;;;;;;6180578;23;20195;-87
2022/11/07 00:06:16;;;;;;;11.87;4.97;;;;;;;;;;6179945;23;20203;-87
2022/11/07 00:08:44;;;;;;;14.03;5.17;;;;;;;;;;6180489;23;20235;-87
2022/11/07 00:11:13;;;;;;;8.90;4.57;;;;;;;;;;6180424;23;20176;-88
2022/11/07 00:13:43;;;;;;;8.70;4.27;;;;;;;;;;6155151;23;20187;-85
2022/11/07 00:16:11;;;;;;;5.63;2.47;;;;;;;;;;6180022;23;20203;-88
2022/11/07 00:18:40;;;;;;;8.43;2.97;;;;;;;;;;6180045;23;20172;-88
2022/11/07 00:21:09;;;;;;;16.47;4.57;;;;;;;;;;6155277;23;20207;-88
2022/11/07 00:23:40;;;;;;;19.10;4.27;;;;;;;;;;6155363;23;20226;-88
2022/11/07 00:26:10;;;;;;;11.83;3.80;;;;;;;;;;6155257;23;20183;-87
2022/11/07 00:28:40;;;;;;;14.90;3.80;;;;;;;;;;6156329;23;20179;-88
2022/11/07 00:31:11;;;;;;;9.27;2.97;;;;;;;;;;6155196;23;20180;-88
2022/11/07 00:33:39;;;;;;;12.27;3.87;;;;;;;;;;6154798;23;20191;-88
2022/11/07 00:36:08;;;;;;;8.43;3.10;;;;;;;;;;6180303;23;20176;-88
2022/11/07 00:38:37;;;;;;;13.90;5.53;;;;;;;;;;6155152;23;20183;-88
2022/11/07 00:41:06;;;;;;;13.47;4.30;;;;;;;;;;6154972;23;20180;-88
2022/11/07 00:43:35;;;;;;;10.50;5.07;;;;;;;;;;6154748;23;20219;-88
2022/11/07 00:46:05;;;;;;;13.83;5.63;;;;;;;;;;6154806;23;20176;-88
2022/11/07 00:48:35;;;;;;;22.87;6.00;;;;;;;;;;6179416;23;20187;-88
2022/11/07 00:51:07;;;;;;;11.00;4.43;;;;;;;;;;6155470;23;20184;-88
2022/11/07 00:53:36;;;;;;;10.97;4.33;;;;;;;;;;6156301;23;20192;-88
2022/11/07 00:56:05;;;;;;;19.27;7.03;;;;;;;;;;6180158;23;20206;-88
2022/11/07 00:58:33;;;;;;;14.83;4.97;;;;;;;;;;6179846;23;20203;-87
2022/11/07 01:01:07;;;;;;;15.50;3.47;;;;;;;;;;6155099;23;20180;-87
2022/11/07 01:06:23;;;;;;;3.30;2.10;;;;;;;;;;6156019;23;20223;-88
2022/11/07 01:08:54;;;;;;;8.27;4.07;;;;;;;;;;6154704;23;20250;-88
2022/11/07 01:11:22;;;;;;;13.60;3.37;;;;;;;;;;6154947;23;20183;-88
2022/11/07 01:13:51;;;;;;;12.10;4.37;;;;;;;;;;6154721;23;20222;-88
2022/11/07 01:16:19;;;;;;;10.77;3.07;;;;;;;;;;6154354;23;20288;-88
2022/11/07 01:18:49;;;;;;;12.00;4.40;;;;;;;;;;6178892;23;20176;-87
2022/11/07 01:21:19;;;;;;;5.83;3.10;;;;;;;;;;6154977;23;20183;-86
2022/11/07 01:23:47;;;;;;;5.93;2.40;;;;;;;;;;6179609;23;20172;-86
2022/11/07 01:26:18;;;;;;;14.37;4.10;;;;;;;;;;6179413;23;20175;-86
2022/11/07 01:28:46;;;;;;;9.83;3.73;;;;;;;;;;6154647;23;20172;-86
2022/11/07 01:31:16;;;;;;;5.13;3.23;;;;;;;;;;6179388;23;20179;-86
2022/11/07 01:33:44;;;;;;;5.27;2.20;;;;;;;;;;6179108;23;20175;-86
2022/11/07 01:36:15;;;;;;;10.53;4.77;;;;;;;;;;6156116;23;20187;-86
2022/11/07 01:38:44;;;;;;;9.83;3.47;;;;;;;;;;6155740;23;20168;-87
2022/11/07 01:41:24;;;;;;;10.83;3.23;;;;;;;;;;6154595;23;20175;-86
2022/11/07 01:43:54;;;;;;;8.27;3.63;;;;;;;;;;6154362;23;20182;-87
2022/11/07 01:46:25;;;;;;;17.07;2.93;;;;;;;;;;6179351;23;20175;-86
2022/11/07 01:48:54;;;;;;;6.80;2.57;;;;;;;;;;6154691;23;20183;-86
2022/11/07 01:51:25;;;;;;;8.83;3.30;;;;;;;;;;6154375;23;20227;-86
2022/11/07 01:53:53;;;;;;;4.03;2.37;;;;;;;;;;6154775;23;20207;-86
2022/11/07 01:56:24;;;;;;;5.13;3.13;;;;;;;;;;6179115;23;20176;-86
2022/11/07 01:58:53;;;;;;;13.83;4.90;;;;;;;;;;6181433;23;20176;-86
2022/11/07 02:01:23;;;;;;;5.30;2.33;;;;;;;;;;6156907;23;20184;-86
2022/11/07 02:03:52;;;;;;;6.17;2.67;;;;;;;;;;6156594;23;20206;-86
2022/11/07 02:06:24;;;;;;;15.23;3.13;;;;;;;;;;6156252;23;20175;-86
2022/11/07 02:08:54;;;;;;;6.50;4.53;;;;;;;;;;6156378;23;20238;-86
2022/11/07 02:11:23;;;;;;;11.27;3.20;;;;;;;;;;6156521;23;20178;-86
2022/11/07 02:13:51;;;;;;;11.67;3.33;;;;;;;;;;6156388;23;20175;-86
2022/11/07 02:16:20;;;;;;;11.00;3.00;;;;;;;;;;6156010;23;20239;-86
2022/11/07 02:18:48;;;;;;;11.13;4.10;;;;;;;;;;6155994;23;20187;-86
2022/11/07 02:21:21;;;;;;;7.17;3.27;;;;;;;;;;6156511;23;20183;-86
2022/11/07 02:23:54;;;;;;;7.87;2.60;;;;;;;;;;6180992;23;20206;-86
2022/11/07 02:26:25;;;;;;;6.17;2.47;;;;;;;;;;6156066;23;20178;-86
2022/11/07 02:28:54;;;;;;;10.83;4.87;;;;;;;;;;6156349;23;20226;-86
2022/11/07 02:31:22;;;;;;;7.73;2.93;;;;;;;;;;6156136;23;20176;-86
2022/11/07 02:33:51;;;;;;;16.60;4.63;;;;;;;;;;6155939;23;20176;-86
2022/11/07 02:36:22;;;;;;;9.20;3.57;;;;;;;;;;6156122;23;20236;-86
2022/11/07 02:38:56;;;;;;;16.80;5.13;;;;;;;;;;6156327;23;20171;-86
2022/11/07 02:41:27;;;;;;;16.10;5.03;;;;;;;;;;6156468;23;20181;-86
2022/11/07 02:43:58;;;;;;;16.57;5.50;;;;;;;;;;6156464;23;20254;-86
2022/11/07 02:46:28;;;;;;;17.17;5.43;;;;;;;;;;6180678;23;20171;-87
2022/11/07 02:48:57;;;;;;;11.60;4.60;;;;;;;;;;6156424;23;20214;-86
2022/11/07 02:51:25;;;;;;;7.50;3.23;;;;;;;;;;6181327;23;20242;-87
2022/11/07 02:53:54;;;;;;;9.97;3.67;;;;;;;;;;6181230;23;20176;-87
2022/11/07 02:56:23;;;;;;;15.30;4.70;;;;;;;;;;6180572;23;20224;-87
2022/11/07 02:58:53;;;;;;;13.27;3.87;;;;;;;;;;6157317;23;20168;-87
2022/11/07 03:01:21;;;;;;;8.77;3.60;;;;;;;;;;6156259;23;20181;-87
2022/11/07 03:03:50;;;;;;;6.47;2.60;;;;;;;;;;6180988;23;20191;-87
2022/11/07 03:06:19;;;;;;;8.17;3.43;;;;;;;;;;6155969;23;20179;-87
2022/11/07 03:08:48;;;;;;;11.70;3.30;;;;;;;;;;6155732;23;20176;-87
2022/11/07 03:11:18;;;;;;;9.13;3.57;;;;;;;;;;6155766;23;20230;-87
2022/11/07 03:13:47;;;;;;;14.63;6.17;;;;;;;;;;6155992;23;20186;-87
2022/11/07 03:16:18;;;;;;;9.67;4.57;;;;;;;;;;6155211;23;20212;-86
2022/11/07 03:18:47;;;;;;;12.07;4.30;;;;;;;;;;6155853;23;20176;-87
2022/11/07 03:21:15;;;;;;;11.20;4.60;;;;;;;;;;6155705;23;20186;-87
2022/11/07 03:23:44;;;;;;;11.13;3.23;;;;;;;;;;6156041;23;20184;-86
2022/11/07 03:26:12;;;;;;;6.93;3.13;;;;;;;;;;6155769;23;20190;-87
2022/11/07 03:28:40;;;;;;;6.73;1.90;;;;;;;;;;6155703;23;20186;-86
2022/11/07 03:31:09;;;;;;;12.70;2.67;;;;;;;;;;6155990;23;20176;-86
2022/11/07 03:33:38;;;;;;;6.67;3.07;;;;;;;;;;6155395;23;20230;-87
2022/11/07 03:36:07;;;;;;;2.33;1.97;;;;;;;;;;6156814;23;20188;-87
2022/11/07 03:38:35;;;;;;;9.83;3.67;;;;;;;;;;6156607;23;20260;-87
2022/11/07 03:41:04;;;;;;;14.23;4.63;;;;;;;;;;6155727;23;20182;-86
2022/11/07 03:43:32;;;;;;;12.20;4.60;;;;;;;;;;6180315;23;20247;-87
2022/11/07 03:46:00;;;;;;;6.30;2.77;;;;;;;;;;6157082;23;20238;-87
2022/11/07 03:48:29;;;;;;;7.97;3.50;;;;;;;;;;6155537;23;20175;-87
2022/11/07 03:50:59;;;;;;;4.73;3.07;;;;;;;;;;6156658;23;20175;-87
2022/11/07 03:53:27;;;;;;;5.13;2.07;;;;;;;;;;6155531;23;20183;-87
2022/11/07 03:55:56;;;;;;;6.87;2.97;;;;;;;;;;6180578;23;20203;-87
2022/11/07 03:58:25;;;;;;;10.00;3.33;;;;;;;;;;6180570;23;20182;-87
2022/11/07 04:00:53;;;;;;;7.77;3.50;;;;;;;;;;6155578;23;20226;-86
2022/11/07 04:03:21;;;;;;;7.80;3.90;;;;;;;;;;6155732;23;20199;-87
2022/11/07 04:05:50;;;;;;;10.67;4.17;;;;;;;;;;6155032;23;20205;-87
2022/11/07 04:08:20;;;;;;;10.70;4.07;;;;;;;;;;6180473;23;20176;-87
2022/11/07 04:10:48;;;;;;;7.10;3.67;;;;;;;;;;6155387;23;20183;-88
2022/11/07 04:18:52;;;;;;;8.77;4.57;;;;;;;;;;6159287;23;20190;-86
2022/11/07 04:21:21;;;;;;;12.00;3.57;;;;;;;;;;6184709;23;20175;-86
2022/11/07 04:23:50;;;;;;;12.23;4.93;;;;;;;;;;6160286;23;20226;-85
2022/11/07 04:29:05;;;;;;;8.13;3.50;;;;;;;;;;6160318;23;20171;-85
2022/11/07 04:31:33;;;;;;;11.37;5.43;;;;;;;;;;6160453;23;20204;-86
2022/11/07 04:34:01;;;;;;;11.53;5.67;;;;;;;;;;6186423;23;20170;-86
2022/11/07 04:36:30;;;;;;;17.10;5.73;;;;;;;;;;6159702;23;20218;-86
2022/11/07 04:39:00;;;;;;;7.97;4.50;;;;;;;;;;6159954;23;20178;-86
2022/11/07 04:41:28;;;;;;;8.33;3.33;;;;;;;;;;6159721;23;20221;-85
2022/11/07 04:43:56;;;;;;;9.03;4.37;;;;;;;;;;6184733;23;20186;-85
2022/11/07 04:46:25;;;;;;;12.90;4.90;;;;;;;;;;6159979;23;20178;-86
2022/11/07 04:48:53;;;;;;;12.93;5.20;;;;;;;;;;6186518;23;20171;-86
2022/11/07 04:51:23;;;;;;;13.67;5.67;;;;;;;;;;6159853;23;20183;-86
2022/11/07 04:53:51;;;;;;;15.70;6.03;;;;;;;;;;6185818;23;20177;-86
2022/11/07 04:56:21;;;;;;;21.10;5.97;;;;;;;;;;6186291;23;20199;-86
2022/11/07 04:58:49;;;;;;;11.33;4.53;;;;;;;;;;6159973;23;20183;-86
2022/11/07 05:01:18;;;;;;;13.80;5.57;;;;;;;;;;6160035;23;20183;-86
2022/11/07 05:03:46;;;;;;;9.23;4.10;;;;;;;;;;6160178;23;20209;-87
2022/11/07 05:06:15;;;;;;;8.40;4.17;;;;;;;;;;6159493;23;20169;-86
2022/11/07 05:08:43;;;;;;;12.07;5.37;;;;;;;;;;6160146;23;20182;-86
2022/11/07 05:11:12;;;;;;;13.40;4.13;;;;;;;;;;6159885;23;20218;-86
2022/11/07 05:13:42;;;;;;;10.60;4.63;;;;;;;;;;6184397;23;20175;-87
2022/11/07 05:16:12;;;;;;;12.37;4.60;;;;;;;;;;6184580;23;20194;-86
2022/11/07 05:18:40;;;;;;;10.40;4.57;;;;;;;;;;6160120;23;20174;-87
2022/11/07 05:21:09;;;;;;;10.33;3.90;;;;;;;;;;6159854;23;20175;-86
2022/11/07 05:23:37;;;;;;;11.07;4.40;;;;;;;;;;6159979;23;20178;-86
2022/11/07 05:26:06;;;;;;;10.63;3.40;;;;;;;;;;6185480;23;20241;-86
2022/11/07 05:28:34;;;;;;;12.90;5.17;;;;;;;;;;6160061;23;20208;-86
2022/11/07 05:31:09;;;;;;;12.43;5.33;;;;;;;;;;6184022;23;20189;-86
2022/11/07 05:33:37;;;;;;;11.03;4.40;;;;;;;;;;6159895;23;20173;-86
2022/11/07 05:36:09;;;;;;;6.23;2.80;;;;;;;;;;6159117;23;20237;-86
2022/11/07 05:38:38;;;;;;;9.77;4.80;;;;;;;;;;6185765;23;20182;-86
2022/11/07 05:41:06;;;;;;;12.57;5.47;;;;;;;;;;6184298;23;20184;-86
2022/11/07 05:43:35;;;;;;;8.50;3.23;;;;;;;;;;6159512;23;20189;-86
2022/11/07 05:46:03;;;;;;;11.47;5.20;;;;;;;;;;6159419;23;20229;-86
2022/11/07 05:48:33;;;;;;;8.23;4.07;;;;;;;;;;6185823;23;20185;-86
2022/11/07 05:51:02;;;;;;;11.37;4.60;;;;;;;;;;6159506;23;20208;-87
2022/11/07 05:53:30;;;;;;;7.17;3.17;;;;;;;;;;6183994;23;20178;-86
2022/11/07 05:55:59;;;;;;;13.63;4.97;;;;;;;;;;6159522;23;20175;-87
2022/11/07 05:58:27;;;;;;;14.27;6.50;;;;;;;;;;6184494;23;20178;-87
2022/11/07 06:01:00;;;;;;;11.97;3.83;;;;;;;;;;6159426;23;20190;-87
2022/11/07 06:03:29;;;;;;;11.53;4.70;;;;;;;;;;6159206;23;20272;-87
2022/11/07 06:05:59;;;;;;;9.07;3.37;;;;;;;;;;6185354;23;20173;-87
2022/11/07 06:08:28;;;;;;;6.97;2.60;;;;;;;;;;6158983;23;20214;-87
2022/11/07 06:10:56;;;;;;;13.67;4.50;;;;;;;;;;6159085;23;20236;-87
2022/11/07 06:13:24;;;;;;;9.90;3.00;;;;;;;;;;6185137;23;20231;-86
2022/11/07 06:15:58;;;;;;;16.07;4.50;;;;;;;;;;6184907;23;20201;-87
2022/11/07 06:18:26;;;;;;;12.57;5.03;;;;;;;;;;6185675;23;20167;-87
2022/11/07 06:21:01;;;;;;;5.13;2.17;;;;;;;;;;6185466;23;20177;-87
2022/11/07 06:23:33;;;;;;;7.73;3.70;;;;;;;;;;6159433;23;20233;-86
2022/11/07 06:26:01;;;;;;;12.33;4.70;;;;;;;;;;6158906;23;20175;-87
2022/11/07 06:28:32;;;;;;;8.87;3.90;;;;;;;;;;6183851;23;20177;-87
2022/11/07 06:31:00;;;;;;;6.23;2.70;;;;;;;;;;6185440;23;20181;-87
2022/11/07 06:33:29;;;;;;;7.83;3.33;;;;;;;;;;6183988;23;20182;-87
2022/11/07 06:36:07;;;;;;;12.03;4.73;;;;;;;;;;6159236;23;20207;-87
2022/11/07 06:38:36;;;;;;;10.13;4.10;;;;;;;;;;6183611;23;20174;-88
2022/11/07 06:41:05;;;;;;;9.13;4.13;;;;;;;;;;6158936;23;20178;-88
2022/11/07 06:43:34;;;;;;;8.13;3.27;;;;;;;;;;6184891;23;20192;-88
2022/11/07 06:46:04;;;;;;;9.80;4.60;;;;;;;;;;6186000;23;20182;-87
2022/11/07 06:48:32;;;;;;;13.33;5.03;;;;;;;;;;6186158;23;20170;-88
2022/11/07 06:51:01;;;;;;;5.40;3.20;;;;;;;;;;6186878;23;20225;-88
2022/11/07 06:53:31;;;;;;;6.17;3.37;;;;;;;;;;6185927;23;20175;-87
2022/11/07 06:56:00;;;;;;;14.90;6.07;;;;;;;;;;6185660;23;20175;-86
2022/11/07 06:58:28;;;;;;;8.20;4.50;;;;;;;;;;6161125;23;20213;-87
2022/11/07 07:01:00;;;;;;;8.77;4.83;;;;;;;;;;6161138;23;20178;-87
2022/11/07 07:03:29;;;;;;;7.63;4.07;;;;;;;;;;6160580;23;20199;-87
2022/11/07 07:06:01;;;;;;;10.97;5.97;;;;;;;;;;6160758;23;20179;-85
2022/11/07 07:08:31;;;;;;;9.13;4.87;;;;;;;;;;6186967;23;20175;-84
2022/11/07 07:11:02;;;;;;;3.17;2.47;;;;;;;;;;6160871;23;20179;-86
2022/11/07 07:13:31;;;;;;;17.57;7.27;;;;;;;;;;6161416;23;20174;-86
2022/11/07 07:15:59;;;;;;;11.97;5.97;;;;;;;;;;6185217;23;20182;-83
2022/11/07 07:18:28;;;;;;;11.77;6.73;;;;;;;;;;6161080;23;20187;-83
2022/11/07 07:21:03;;;;;;;17.07;6.60;;;;;;;;;;6186691;23;20178;-81
2022/11/07 07:23:33;;;;;;;17.47;7.50;;;;;;;;;;6160870;23;20177;-84
2022/11/07 07:26:02;;;;;;;17.63;7.13;;;;;;;;;;6160724;23;20194;-85
2022/11/07 07:28:30;;;;;;;9.63;5.63;;;;;;;;;;6160883;23;20171;-85
2022/11/07 07:31:08;;;;;;;11.70;5.67;;;;;;;;;;6160843;23;20181;-83
2022/11/07 07:33:36;;;;;;;10.70;5.77;;;;;;;;;;6186665;23;20171;-83
2022/11/07 07:36:05;;;;;;;13.23;6.50;;;;;;;;;;6160616;23;20171;-84
2022/11/07 07:38:34;;;;;;;8.07;3.53;;;;;;;;;;6186520;23;20197;-83
2022/11/07 07:41:03;;;;;;;17.87;5.53;;;;;;;;;;6160903;23;20234;-83
2022/11/07 07:43:32;;;;;;;11.30;5.43;;;;;;;;;;6186599;23;20171;-86
2022/11/07 07:46:01;;;;;;;14.83;4.63;;;;;;;;;;6160896;23;20198;-85
2022/11/07 07:48:30;;;;;;;12.97;5.70;;;;;;;;;;6160621;23;20175;-85
2022/11/07 07:50:58;;;;;;;6.57;3.83;;;;;;;;;;6161400;23;20185;-86
2022/11/07 07:53:27;;;;;;;12.43;4.07;;;;;;;;;;6186463;23;20177;-85
2022/11/07 07:55:58;;;;;;;11.87;4.03;;;;;;;;;;6185321;23;20189;-85
2022/11/07 07:58:27;;;;;;;11.93;4.90;;;;;;;;;;6185381;23;20224;-86
2022/11/07 08:00:57;;;;;;;12.40;3.97;;;;;;;;;;6186933;23;20178;-86
2022/11/07 08:03:27;;;;;;;12.00;4.00;;;;;;;;;;6185097;23;20201;-86
2022/11/07 08:05:59;;;;;;;15.27;5.23;;;;;;;;;;6160797;23;20265;-86
2022/11/07 08:08:28;;;;;;;12.00;4.97;;;;;;;;;;6185664;23;20171;-85
2022/11/07 08:11:06;;;;;;;18.27;5.80;;;;;;;;;;6160747;23;20265;-85
2022/11/07 08:13:35;;;;;;;13.90;4.73;;;;;;;;;;6160504;23;20178;-85
2022/11/07 08:16:06;;;;;;;5.27;2.50;;;;;;;;;;6185306;23;20179;-86
2022/11/07 08:18:38;;;;;;;7.03;3.20;;;;;;;;;;6185349;23;20221;-86
2022/11/07 08:21:07;;;;;;;8.87;2.87;;;;;;;;;;6186660;23;20252;-88
2022/11/07 08:23:36;;;;;;;11.53;4.73;;;;;;;;;;6185410;23;20266;-88
2022/11/07 08:26:06;;;;;;;11.90;5.67;;;;;;;;;;6185456;23;20202;-88
2022/11/07 08:28:35;;;;;;;7.63;3.17;;;;;;;;;;6185141;23;20182;-89
2022/11/07 08:31:05;;;;;;;11.60;3.50;;;;;;;;;;6160237;23;20185;-88
2022/11/07 08:33:34;;;;;;;10.37;3.70;;;;;;;;;;6160059;23;20182;-89
2022/11/07 08:36:04;;;;;;;17.30;3.70;;;;;;;;;;6184772;23;20259;-89
2022/11/07 08:38:34;;;;;;;6.30;2.80;;;;;;;;;;6160082;23;20217;-89
2022/11/07 08:41:03;;;;;;;7.93;2.77;;;;;;;;;;6184788;23;20175;-89
2022/11/07 08:43:33;;;;;;;15.80;5.27;;;;;;;;;;6185321;23;20186;-89
2022/11/07 08:46:01;;;;;;;12.97;5.97;;;;;;;;;;6160293;23;20179;-86
2022/11/07 08:48:30;;;;;;;10.83;3.93;;;;;;;;;;6185335;23;20171;-84
2022/11/07 08:51:01;;;;;;;15.13;5.37;;;;;;;;;;6160064;23;20175;-86
2022/11/07 08:53:47;;;;;;;11.17;3.93;;;;;;;;;;5152594;27;20575;-85
2022/11/07 08:56:16;;;;;;;4.57;2.10;;;;;;;;;;5135922;27;20206;-86
2022/11/07 08:58:44;;;;;;;17.77;5.97;;;;;;;;;;5130399;28;20219;-86
2022/11/07 09:01:13;;;;;;;9.23;3.00;;;;;;;;;;5113688;28;20294;-85
2022/11/07 09:03:41;;;;;;;24.67;4.03;;;;;;;;;;5130098;28;20227;-86
2022/11/07 09:06:18;;;;;;;7.43;3.13;;;;;;;;;;5130302;27;20195;-85
2022/11/07 09:08:47;;;;;;;10.93;3.93;;;;;;;;;;5113190;28;20200;-86
2022/11/07 09:11:17;;;;;;;15.60;5.20;;;;;;;;;;5113247;28;20333;-90
2022/11/07 09:13:46;;;;;;;9.97;2.70;;;;;;;;;;5142026;27;20548;-90
2022/11/07 09:16:17;;;;;;;5.90;3.07;;;;;;;;;;5131717;27;20199;-90
2022/11/07 09:18:46;;;;;;;11.77;4.47;;;;;;;;;;5130197;28;20207;-90
2022/11/07 09:21:14;;;;;;;18.87;5.87;;;;;;;;;;5127231;28;20200;-89
2022/11/07 09:23:51;;;;;;;15.70;5.60;;;;;;;;;;5131066;27;20195;-90
2022/11/07 09:26:19;;;;;;;11.43;4.00;;;;;;;;;;5117020;28;20192;-90
2022/11/07 09:28:48;;;;;;;10.73;3.63;;;;;;;;;;5130915;28;20204;-90
2022/11/07 09:31:22;;;;;;;14.30;5.20;;;;;;;;;;5112834;28;20188;-89
2022/11/07 09:33:51;;;;;;;8.43;2.60;;;;;;;;;;5112592;28;20212;-90
2022/11/07 09:36:21;;;;;;;10.07;2.20;;;;;;;;;;5129882;27;20196;-90
2022/11/07 09:38:51;;;;;;;8.87;3.87;;;;;;;;;;5129875;28;20234;-89
2022/11/07 09:41:25;;;;;;;14.93;3.27;;;;;;;;;;5112725;28;20212;-90
2022/11/07 09:44:08;;;;;;;4.17;2.70;;;;;;;;;;5112942;28;20205;-90
2022/11/07 09:46:44;;;;;;;12.33;3.70;;;;;;;;;;5130688;27;20199;-89
2022/11/07 09:49:17;;;;;;;9.17;4.20;;;;;;;;;;5130410;28;20203;-90
2022/11/07 09:51:48;;;;;;;16.77;5.00;;;;;;;;;;5126025;27;20256;-89
2022/11/07 09:54:20;;;;;;;9.47;3.87;;;;;;;;;;5126198;28;20216;-89
2022/11/07 09:56:49;;;;;;;12.97;4.80;;;;;;;;;;5108776;28;20220;-89
2022/11/07 09:59:20;;;;;;;11.40;3.60;;;;;;;;;;5109134;28;20204;-89
2022/11/07 10:01:49;;;;;;;11.90;5.43;;;;;;;;;;5108700;28;20208;-89
2022/11/07 10:04:18;;;;;;;14.57;4.07;;;;;;;;;;5100440;28;20289;-89
2022/11/07 10:06:55;;;;;;;15.07;5.07;;;;;;;;;;5112475;28;20189;-89
2022/11/07 10:09:30;;;;;;;13.43;4.43;;;;;;;;;;5096256;28;20200;-90
2022/11/07 10:12:05;;;;;;;9.60;2.73;;;;;;;;;;5112366;28;20201;-89
2022/11/07 10:14:37;;;;;;;10.67;3.93;;;;;;;;;;5094736;28;20204;-89
2022/11/07 10:17:11;;;;;;;16.30;4.23;;;;;;;;;;5095472;28;20205;-89
2022/11/07 10:19:42;;;;;;;8.70;2.53;;;;;;;;;;5112857;27;20205;-90
2022/11/07 10:22:17;;;;;;;15.57;6.57;;;;;;;;;;5095232;28;20216;-90
2022/11/07 10:24:53;;;;;;;8.97;4.53;;;;;;;;;;5112062;28;20208;-89
2022/11/07 10:27:23;;;;;;;11.30;2.63;;;;;;;;;;5112598;27;20204;-89
2022/11/07 10:29:53;;;;;;;8.03;3.50;;;;;;;;;;5094580;28;20208;-89
2022/11/07 10:32:24;;;;;;;10.30;3.93;;;;;;;;;;5094857;28;20198;-90
2022/11/07 10:34:55;;;;;;;7.33;3.07;;;;;;;;;;5106772;28;20199;-90
2022/11/07 10:37:24;;;;;;;6.60;3.30;;;;;;;;;;5095053;28;20196;-90
2022/11/07 10:39:54;;;;;;;6.00;2.17;;;;;;;;;;5094849;28;20255;-89
2022/11/07 10:42:24;;;;;;;11.90;3.80;;;;;;;;;;5082697;28;20224;-89
2022/11/07 10:44:53;;;;;;;6.20;2.50;;;;;;;;;;5095678;28;20198;-90
2022/11/07 10:47:23;;;;;;;8.40;3.23;;;;;;;;;;5094536;28;20255;-90
2022/11/07 10:49:56;;;;;;;5.57;3.17;;;;;;;;;;5094730;28;20217;-90
2022/11/07 10:52:25;;;;;;;12.43;4.90;;;;;;;;;;5104042;28;20308;-89
2022/11/07 10:55:06;;;;;;;9.67;4.00;;;;;;;;;;5074030;28;20198;-88
2022/11/07 10:57:35;;;;;;;5.30;2.30;;;;;;;;;;5074487;28;20204;-88
2022/11/07 11:00:07;;;;;;;8.57;3.57;;;;;;;;;;5073906;28;20220;-89
2022/11/07 11:02:43;;;;;;;10.27;4.83;;;;;;;;;;5087030;28;20205;-88
2022/11/07 11:05:21;;;;;;;10.87;4.07;;;;;;;;;;5090854;28;20217;-89
2022/11/07 11:07:49;;;;;;;2.70;1.77;;;;;;;;;;5090864;28;20205;-91
2022/11/07 11:10:21;;;;;;;10.57;3.17;;;;;;;;;;5090657;28;20275;-90
2022/11/07 11:12:50;;;;;;;12.10;4.10;;;;;;;;;;5090271;28;20229;-90
2022/11/07 11:15:20;;;;;;;15.33;4.70;;;;;;;;;;5072920;28;20292;-91
2022/11/07 11:18:00;;;;;;;9.90;4.40;;;;;;;;;;5090254;28;20256;-90
2022/11/07 11:20:34;;;;;;;7.63;3.07;;;;;;;;;;5073461;28;20205;-90
2022/11/07 11:23:03;;;;;;;11.50;4.40;;;;;;;;;;5090707;28;20202;-90
2022/11/07 11:25:43;;;;;;;8.13;3.17;;;;;;;;;;5090219;28;20216;-90
2022/11/07 11:28:15;;;;;;;10.20;2.93;;;;;;;;;;5073431;28;20279;-90
2022/11/07 11:30:46;;;;;;;11.10;4.43;;;;;;;;;;5073897;28;20210;-90
2022/11/07 11:33:16;;;;;;;9.07;4.07;;;;;;;;;;5073417;28;20241;-91
2022/11/07 11:35:47;;;;;;;10.10;4.07;;;;;;;;;;5089815;28;20201;-91
2022/11/07 11:38:18;;;;;;;8.67;3.37;;;;;;;;;;5090606;28;20219;-90
2022/11/07 11:40:50;;;;;;;11.20;2.70;;;;;;;;;;5060937;28;20197;-90
2022/11/07 11:43:25;;;;;;;11.03;3.77;;;;;;;;;;5066131;28;20186;-88
2022/11/07 11:46:04;;;;;;;7.43;3.00;;;;;;;;;;5069369;28;20202;-90
2022/11/07 11:48:35;;;;;;;11.97;4.33;;;;;;;;;;5072964;28;20243;-89
2022/11/07 11:51:08;;;;;;;4.10;1.97;;;;;;;;;;5072726;28;20230;-91
2022/11/07 11:53:36;;;;;;;11.57;5.23;;;;;;;;;;5089464;28;20244;-90
2022/11/07 11:56:17;;;;;;;8.73;2.97;;;;;;;;;;5110049;28;20197;-90
2022/11/07 11:58:51;;;;;;;5.30;2.63;;;;;;;;;;5082186;28;20258;-89
2022/11/07 12:01:23;;;;;;;10.63;4.20;;;;;;;;;;5094143;28;20200;-90
2022/11/07 12:04:09;;;;;;;14.87;5.40;;;;;;;;;;5109737;28;20249;-91
2022/11/07 12:06:39;;;;;;;8.60;3.70;;;;;;;;;;5090608;28;20293;-90
2022/11/07 12:09:15;;;;;;;10.93;4.47;;;;;;;;;;5103884;28;20200;-89
2022/11/07 12:11:52;;;;;;;12.47;5.33;;;;;;;;;;5093631;28;20203;-89
2022/11/07 12:14:38;;;;;;;12.63;4.93;;;;;;;;;;5092464;28;20216;-89
2022/11/07 12:17:10;;;;;;;15.20;5.30;;;;;;;;;;5091278;28;20201;-89
2022/11/07 12:19:43;;;;;;;10.83;4.47;;;;;;;;;;5080054;28;20242;-90
2022/11/07 12:22:16;;;;;;;1.63;1.10;;;;;;;;;;5109747;28;20225;-89
2022/11/07 12:24:47;;;;;;;10.80;4.30;;;;;;;;;;5093274;28;20221;-90
2022/11/07 12:27:25;;;;;;;10.47;4.67;;;;;;;;;;5093467;28;20197;-89
2022/11/07 12:30:03;;;;;;;10.63;3.70;;;;;;;;;;5092729;28;20254;-89
2022/11/07 12:32:36;;;;;;;13.90;5.20;;;;;;;;;;5093013;28;20212;-90
2022/11/07 12:35:16;;;;;;;8.17;2.50;;;;;;;;;;5094148;28;20299;-89
2022/11/07 12:38:02;;;;;;;13.20;5.23;;;;;;;;;;5083506;28;20209;-89
2022/11/07 12:40:36;;;;;;;8.27;4.23;;;;;;;;;;5092555;28;20220;-89
2022/11/07 12:43:15;;;;;;;9.70;3.97;;;;;;;;;;5093162;28;20193;-89
2022/11/07 12:45:47;;;;;;;1.87;1.03;;;;;;;;;;5096619;28;20201;-90
2022/11/07 12:48:28;;;;;;;12.07;4.33;;;;;;;;;;5112210;28;20197;-89
2022/11/07 12:51:02;;;;;;;13.33;4.87;;;;;;;;;;5095345;28;20197;-90
2022/11/07 12:53:35;;;;;;;11.50;2.87;;;;;;;;;;5095111;28;20294;-89
2022/11/07 12:56:06;;;;;;;14.00;4.53;;;;;;;;;;5112853;28;20224;-89
2022/11/07 12:58:38;;;;;;;7.23;3.27;;;;;;;;;;5112463;28;20197;-90
2022/11/07 13:01:06;;;;;;;11.23;5.80;;;;;;;;;;5096637;28;20226;-89
2022/11/07 13:03:56;;;;;;;10.40;3.10;;;;;;;;;;5112142;28;20216;-89
2022/11/07 13:06:27;;;;;;;15.60;5.10;;;;;;;;;;5094443;28;20200;-89
2022/11/07 13:08:58;;;;;;;16.70;4.90;;;;;;;;;;5095244;28;20209;-89
2022/11/07 13:11:29;;;;;;;9.23;4.30;;;;;;;;;;5094180;28;20261;-89
2022/11/07 13:14:08;;;;;;;10.97;4.07;;;;;;;;;;5094566;28;20232;-89
2022/11/07 13:16:37;;;;;;;15.00;4.83;;;;;;;;;;5080692;28;20204;-90
2022/11/07 13:19:09;;;;;;;14.03;4.63;;;;;;;;;;5108983;28;20202;-90
2022/11/07 13:21:42;;;;;;;10.37;4.53;;;;;;;;;;5092078;28;20212;-90
2022/11/07 13:24:19;;;;;;;8.23;4.00;;;;;;;;;;5109069;28;20189;-90
2022/11/07 13:26:49;;;;;;;11.13;4.37;;;;;;;;;;5110209;28;20228;-89
2022/11/07 13:29:26;;;;;;;17.23;5.27;;;;;;;;;;5092855;28;20222;-90
2022/11/07 13:32:05;;;;;;;11.73;4.00;;;;;;;;;;5091789;28;20522;-90
2022/11/07 13:34:58;;;;;;;13.10;4.93;;;;;;;;;;5108810;28;20227;-89
2022/11/07 13:37:31;;;;;;;11.57;4.43;;;;;;;;;;5108849;28;20201;-89
2022/11/07 13:40:06;;;;;;;10.43;5.80;;;;;;;;;;5124468;27;20200;-89
2022/11/07 13:42:35;;;;;;;9.67;4.73;;;;;;;;;;5096875;28;20210;-89
2022/11/07 13:45:09;;;;;;;16.17;6.20;;;;;;;;;;5095512;28;20254;-90
2022/11/07 13:47:40;;;;;;;16.83;5.70;;;;;;;;;;5106073;28;20203;-89
2022/11/07 13:50:14;;;;;;;15.60;6.37;;;;;;;;;;5114586;27;20189;-89
2022/11/07 13:52:46;;;;;;;12.33;5.23;;;;;;;;;;5095298;28;20235;-89
2022/11/07 13:55:16;;;;;;;5.80;2.67;;;;;;;;;;5109721;28;20209;-89
2022/11/07 13:57:48;;;;;;;9.33;5.00;;;;;;;;;;5096258;28;20208;-90
2022/11/07 14:00:19;;;;;;;9.77;4.57;;;;;;;;;;5083402;28;20234;-89
2022/11/07 14:02:53;;;;;;;12.77;5.90;;;;;;;;;;5124889;27;20199;-89
2022/11/07 14:05:23;;;;;;;12.23;5.20;;;;;;;;;;5112429;28;20223;-90
2022/11/07 14:07:54;;;;;;;12.87;4.53;;;;;;;;;;5108087;28;20284;-89
2022/11/07 14:10:25;;;;;;;15.07;5.43;;;;;;;;;;5096135;28;20215;-89
2022/11/07 14:12:56;;;;;;;10.07;4.67;;;;;;;;;;5094990;28;20193;-89
2022/11/07 14:15:25;;;;;;;6.77;3.73;;;;;;;;;;5095393;28;20274;-89
2022/11/07 14:17:55;;;;;;;14.83;6.03;;;;;;;;;;5096453;28;20262;-90
2022/11/07 14:20:23;;;;;;;12.43;4.43;;;;;;;;;;5095471;28;20196;-89
2022/11/07 14:22:53;;;;;;;15.13;4.90;;;;;;;;;;5094888;28;20209;-90
2022/11/07 14:25:24;;;;;;;12.23;5.67;;;;;;;;;;5095192;28;20189;-89
2022/11/07 14:27:53;;;;;;;20.47;7.13;;;;;;;;;;5099388;28;20205;-90
2022/11/07 14:30:22;;;;;;;15.60;5.83;;;;;;;;;;5094961;28;20262;-90
2022/11/07 14:32:54;;;;;;;14.50;6.37;;;;;;;;;;5111713;28;20197;-90
2022/11/07 14:35:24;;;;;;;8.00;3.77;;;;;;;;;;5095685;28;20231;-90
2022/11/07 14:37:53;;;;;;;9.47;5.43;;;;;;;;;;5096219;28;20205;-88
2022/11/07 14:40:21;;;;;;;10.77;5.60;;;;;;;;;;5094963;28;20292;-90
2022/11/07 14:42:51;;;;;;;12.63;5.27;;;;;;;;;;5094898;28;20258;-89
2022/11/07 14:45:21;;;;;;;10.93;5.30;;;;;;;;;;5094484;28;20201;-89
2022/11/07 14:48:12;;;;;;;6.63;2.53;;;;;;;;;;5104137;28;20313;-89
2022/11/07 14:50:42;;;;;;;12.40;6.47;;;;;;;;;;5093412;27;20292;-87
2022/11/07 14:53:18;;;;;;;11.37;5.20;;;;;;;;;;5093242;28;20323;-88
2022/11/07 14:55:50;;;;;;;14.57;6.50;;;;;;;;;;5102989;28;20354;-90
2022/11/07 14:58:21;;;;;;;13.93;6.50;;;;;;;;;;5105264;28;20197;-89
2022/11/07 15:00:54;;;;;;;14.03;5.87;;;;;;;;;;5092336;28;20193;-91
2022/11/07 15:03:33;;;;;;;12.80;6.17;;;;;;;;;;5093551;28;20220;-92
2022/11/07 15:06:20;;;;;;;16.27;6.63;;;;;;;;;;5092905;28;20318;-90
2022/11/07 15:08:59;;;;;;;11.43;5.53;;;;;;;;;;5098234;28;20197;-89